Kljuci, Russia
Current Conditions -  °F | °C
As of 10:00 PM on Friday 19 Dec 2014 (Local Time) from UASP Reporting Station
Clear Clear  
Wind Chill: -22°   Ceiling: Unl
Heat Index: -6°   Visibility: 6mi
Dew Point: -11°   Wind: 9mph
Humidity: 77%   Direction: 130°SE
Pressure: 30.53"   Gusts: NA
Location:  52.25°N, 79.13°E
Report Text: UASP 191500Z 13004MPS CAVOK M21/M24 Q1034 R21/410160 NOSIG RMKQFE764/1019
Loading
Personal Weather Stations






























Interactive Weather Map New forecast layout! Learn more

10-Day Weather Forecast

Advertisements
Track Severe Weather on mobile